Skip Navigation Links
NOAA logo - Click to go to the NOAA homepage
NOAA's National Weather Service
Alaska Aviation Weather Unit
  NWS logo - Click to go to the NWS homepage
Left Navbar Graphic     08 AKDT = 16 GMT

   
NOAA is celebrating 200 years of science, service, and stewardship. Visit the NOAA 200th celebration Web site to learn more.
USA.gov is the U.S. Government's official Web portal to all Federal, state and local government Web resources and services.
Facebook
NWS on Facebook

Important Change Regarding the AAWU Web Presence

 

Over the last several months, the AAWU has been working to navigate its webpages to a nationally supported server. Security, as well as other needs, have necessitated the change.  In the process, we have made an effort to enhance the functionality of our website, as well as some of our products. As of June 20, 2017, aawu.arh.noaa.gov will be discontinued. The new AAWU web address is weather.gov/aawu. It is now live and will run in-parallel with the old site until it is discontinued. Please send any feedback or questions regarding the new webpages to nws.ar.aawu.webauthors@noaa.gov.  Thank you for your patience during this time of transition.
AAWU Home :: Display TAF Add Bookmark
TAF CYZF 291138Z 2912/3012 20008KT P6SM BKN100
     FM291800 14005KT P6SM SCT100
      BECMG 3004/3006 11010KT
     FM300900 10012KT P6SM BKN100 RMK
      NXT FCST BY 291800Z=

METAR CYZF 291000Z 20009G16KT 15SM SCT100 BKN130 08/M02 A3021 RMK AC4AC1 SLP239= METAR CYZF 291100Z 20007KT 15SM SCT095 BKN130 08/M01 A3019 RMK AC4AC2 VIRGA NW ACC EMBD SLP235= METAR CYZF 291200Z 18006KT 15SM SCT095 BKN130 08/M00 A3019 RMK AC3AC3 SLP235= METAR CYZF 291300Z 19009KT 15SM FEW040 BKN130 11/M00 A3017 RMK SC1AC6 VIRGA SLP226= METAR CYZF 291400Z 19006KT 15SM FEW040 BKN100 10/M01 A3017 RMK SC1AC7 SC TR VIRGA ACC EMBD SLP226= METAR CYZF 291500Z 19006KT 15SM FEW040 BKN100 BKN150 11/00 A3016 RMK SC1AC6AC1 SC TR SLP225= METAR CYZF 291600Z 16005KT 15SM FEW040 SCT090 BKN150 11/01 A3015 RMK SC1AC4AC2 SC TR SLP221=
 Alaska TAF Map

NOAA's National Weather Service
Alaska Aviation Weather Unit
6930 Sand Lake Road
Anchorage, AK 99502-1845
Disclaimer
Credits
Glossary
Privacy Policy
About Us
Career Opportunities
Contact AAWU Internet Services Site last modified: April, 17th 2012